Time;durP1;ratioP1;P1;durP2;ratioP2;P2;SDS_P1;SDS_P2;PMS_P1;PMS_P2;Temp;Humidity;BMP_temperature;BMP_pressure;BME280_temperature;BME280_humidity;BME280_pressure;Samples;Min_cycle;Max_cycle;Signal;HPM_P1;HPM_P2
2023/03/27 00:02:23;;;;;;;12.05;5.10;;;;;;;;;;4994969;28;20045;-60
2023/03/27 00:04:53;;;;;;;8.73;4.00;;;;;;;;;;4995563;28;20478;-58
2023/03/27 00:07:20;;;;;;;7.60;4.20;;;;;;;;;;4994691;28;20045;-59
2023/03/27 00:09:47;;;;;;;13.40;4.18;;;;;;;;;;4996813;28;20042;-58
2023/03/27 00:12:14;;;;;;;11.85;4.93;;;;;;;;;;4996658;28;20056;-56
2023/03/27 00:14:40;;;;;;;9.57;4.30;;;;;;;;;;4995381;28;20734;-57
2023/03/27 00:17:08;;;;;;;7.15;4.20;;;;;;;;;;4996102;28;20069;-56
2023/03/27 00:19:35;;;;;;;7.88;4.25;;;;;;;;;;4995189;28;20038;-58
2023/03/27 00:22:02;;;;;;;12.73;4.63;;;;;;;;;;4995482;28;20038;-57
2023/03/27 00:24:29;;;;;;;9.63;4.00;;;;;;;;;;4996343;28;20046;-58
2023/03/27 00:26:55;;;;;;;8.35;4.70;;;;;;;;;;4994921;28;20078;-63
2023/03/27 00:29:22;;;;;;;16.27;6.40;;;;;;;;;;4996205;28;20037;-62
2023/03/27 00:31:49;;;;;;;13.07;5.18;;;;;;;;;;4995454;28;20050;-61
2023/03/27 00:34:15;;;;;;;10.20;5.30;;;;;;;;;;4996156;28;20077;-60
2023/03/27 00:36:42;;;;;;;8.88;5.47;;;;;;;;;;4994113;28;20130;-58
2023/03/27 00:39:10;;;;;;;10.48;5.80;;;;;;;;;;4995514;28;20053;-58
2023/03/27 00:41:36;;;;;;;9.57;4.57;;;;;;;;;;4995096;28;20775;-56
2023/03/27 00:44:19;;;;;;;12.38;4.80;;;;;;;;;;4995647;28;22056;-57
2023/03/27 00:46:48;;;;;;;11.57;5.30;;;;;;;;;;4994076;28;20141;-58
2023/03/27 00:49:15;;;;;;;8.90;4.97;;;;;;;;;;4994647;28;20651;-58
2023/03/27 00:51:43;;;;;;;8.73;5.30;;;;;;;;;;4994610;28;20045;-56
2023/03/27 00:54:10;;;;;;;12.18;5.97;;;;;;;;;;4994916;28;20414;-58
2023/03/27 00:56:37;;;;;;;14.93;6.50;;;;;;;;;;4993645;28;20050;-58
2023/03/27 00:59:06;;;;;;;13.20;6.82;;;;;;;;;;4995059;28;20053;-57
2023/03/27 01:01:33;;;;;;;14.50;8.55;;;;;;;;;;4994218;28;20084;-58
2023/03/27 01:04:01;;;;;;;13.50;8.52;;;;;;;;;;4994132;28;20040;-59
2023/03/27 01:06:28;;;;;;;16.25;9.52;;;;;;;;;;4994129;28;20604;-58
2023/03/27 01:08:55;;;;;;;16.20;8.98;;;;;;;;;;4995704;28;20046;-58
2023/03/27 01:11:21;;;;;;;11.48;7.90;;;;;;;;;;4994888;28;20030;-58
2023/03/27 01:14:00;;;;;;;13.65;9.50;;;;;;;;;;4993989;28;20050;-57
2023/03/27 01:16:27;;;;;;;15.05;8.38;;;;;;;;;;4993425;28;20076;-58
2023/03/27 01:19:12;;;;;;;15.38;9.15;;;;;;;;;;4993432;28;20067;-57
2023/03/27 01:21:57;;;;;;;16.20;8.80;;;;;;;;;;4994309;28;20378;-59
2023/03/27 01:24:42;;;;;;;15.40;9.02;;;;;;;;;;4994052;28;20462;-57
2023/03/27 01:27:36;;;;;;;13.43;8.80;;;;;;;;;;4994378;28;20044;-58
2023/03/27 01:30:06;;;;;;;14.10;9.48;;;;;;;;;;4984775;28;20561;-57
2023/03/27 01:32:56;;;;;;;12.25;8.05;;;;;;;;;;4993970;28;20060;-59
2023/03/27 01:35:35;;;;;;;20.45;9.30;;;;;;;;;;4993772;28;20399;-57
2023/03/27 01:38:21;;;;;;;17.83;8.38;;;;;;;;;;4994204;28;20041;-57
2023/03/27 01:40:53;;;;;;;14.05;8.20;;;;;;;;;;5001130;28;20057;-58
2023/03/27 01:43:30;;;;;;;10.87;6.83;;;;;;;;;;4993785;28;20037;-57
2023/03/27 01:46:00;;;;;;;14.77;8.23;;;;;;;;;;4993772;28;20283;-58
2023/03/27 01:48:36;;;;;;;16.52;9.25;;;;;;;;;;4994544;28;20112;-57
2023/03/27 01:51:23;;;;;;;16.73;9.05;;;;;;;;;;4994453;28;20092;-58
2023/03/27 01:53:52;;;;;;;15.32;8.05;;;;;;;;;;4994284;28;20057;-57
2023/03/27 01:56:27;;;;;;;13.50;7.78;;;;;;;;;;4993857;28;20056;-57
2023/03/27 01:59:02;;;;;;;17.05;8.48;;;;;;;;;;4994823;28;20046;-57
2023/03/27 02:01:35;;;;;;;15.77;7.40;;;;;;;;;;4993233;28;20077;-57
2023/03/27 02:04:02;;;;;;;15.73;8.18;;;;;;;;;;4995163;28;20046;-58
2023/03/27 02:06:37;;;;;;;15.18;8.57;;;;;;;;;;4993222;28;20225;-60
2023/03/27 02:09:10;;;;;;;19.13;8.57;;;;;;;;;;4993869;28;20046;-59
2023/03/27 02:11:40;;;;;;;15.55;8.73;;;;;;;;;;4994004;28;20042;-59
2023/03/27 02:14:12;;;;;;;13.70;7.82;;;;;;;;;;4994892;28;20050;-61
2023/03/27 02:16:41;;;;;;;15.60;7.32;;;;;;;;;;4992759;28;20075;-60
2023/03/27 02:19:13;;;;;;;13.52;7.82;;;;;;;;;;4994622;28;20030;-59
2023/03/27 02:21:40;;;;;;;15.18;7.68;;;;;;;;;;4993704;28;20038;-60
2023/03/27 02:24:07;;;;;;;12.90;7.28;;;;;;;;;;4994949;28;20034;-60
2023/03/27 02:26:34;;;;;;;17.20;7.70;;;;;;;;;;4997080;28;20048;-60
2023/03/27 02:29:11;;;;;;;11.95;6.90;;;;;;;;;;4997663;28;20092;-61
2023/03/27 02:31:37;;;;;;;14.98;6.75;;;;;;;;;;4997057;28;20041;-60
2023/03/27 02:34:07;;;;;;;14.07;6.25;;;;;;;;;;4997709;28;20050;-61
2023/03/27 02:37:03;;;;;;;26.08;6.60;;;;;;;;;;4996606;28;20046;-60
2023/03/27 02:39:36;;;;;;;13.18;6.45;;;;;;;;;;4972977;28;20058;-60
2023/03/27 02:42:10;;;;;;;13.00;6.55;;;;;;;;;;4974486;28;21794;-61
2023/03/27 02:44:44;;;;;;;7.93;4.75;;;;;;;;;;4974123;28;20088;-60
2023/03/27 02:47:10;;;;;;;;;;;;;;;;;;4976340;28;20488;-60
2023/03/27 02:49:42;;;;;;;6.90;2.38;;;;;;;;;;4974717;28;19921;-61
2023/03/27 02:52:30;;;;;;;5.40;1.48;;;;;;;;;;4973370;28;20125;-60
2023/03/27 02:55:04;;;;;;;3.35;1.42;;;;;;;;;;4973739;28;20055;-59
2023/03/27 02:57:32;;;;;;;3.53;1.35;;;;;;;;;;4974416;28;20249;-57
2023/03/27 03:00:21;;;;;;;6.18;1.70;;;;;;;;;;4975146;28;20046;-57
2023/03/27 03:02:47;;;;;;;4.22;1.73;;;;;;;;;;4975122;28;20089;-58
2023/03/27 03:05:19;;;;;;;3.25;1.00;;;;;;;;;;4974051;28;20038;-60
2023/03/27 03:07:46;;;;;;;6.07;2.60;;;;;;;;;;4973818;28;20160;-58
2023/03/27 03:10:14;;;;;;;6.90;3.03;;;;;;;;;;4982977;28;20050;-58
2023/03/27 03:12:41;;;;;;;6.03;2.97;;;;;;;;;;4996247;28;20052;-57
2023/03/27 03:15:09;;;;;;;7.45;3.25;;;;;;;;;;4995923;28;20042;-58
2023/03/27 03:17:36;;;;;;;6.65;3.50;;;;;;;;;;4996979;28;20080;-57
2023/03/27 03:20:04;;;;;;;8.15;3.17;;;;;;;;;;4996967;28;20150;-59
2023/03/27 03:22:31;;;;;;;6.95;3.03;;;;;;;;;;4996464;28;20430;-58
2023/03/27 03:24:57;;;;;;;7.93;3.33;;;;;;;;;;4996954;28;20528;-56
2023/03/27 03:27:24;;;;;;;7.30;3.03;;;;;;;;;;4996480;28;20042;-58
2023/03/27 03:29:51;;;;;;;5.75;2.80;;;;;;;;;;4996476;28;21642;-58
2023/03/27 03:32:18;;;;;;;5.18;2.50;;;;;;;;;;4996056;28;20038;-57
2023/03/27 03:34:48;;;;;;;5.72;2.83;;;;;;;;;;4995899;28;20144;-58
2023/03/27 03:37:14;;;;;;;7.82;2.50;;;;;;;;;;4995518;28;20778;-57
2023/03/27 03:39:41;;;;;;;5.40;2.75;;;;;;;;;;4995934;28;20133;-59
2023/03/27 03:42:08;;;;;;;5.53;2.67;;;;;;;;;;4996647;28;20034;-59
2023/03/27 03:44:36;;;;;;;7.18;2.83;;;;;;;;;;4995107;28;20050;-57
2023/03/27 03:47:02;;;;;;;6.38;2.70;;;;;;;;;;4996565;28;20079;-57
2023/03/27 03:49:29;;;;;;;7.63;3.72;;;;;;;;;;4995914;28;20053;-58
2023/03/27 03:51:56;;;;;;;10.70;3.40;;;;;;;;;;4996917;28;20140;-58
2023/03/27 03:54:22;;;;;;;6.47;3.33;;;;;;;;;;4994300;28;20578;-58
2023/03/27 03:56:49;;;;;;;5.82;3.17;;;;;;;;;;4996439;28;20506;-56
2023/03/27 03:59:16;;;;;;;7.18;3.60;;;;;;;;;;4995130;28;20131;-57
2023/03/27 04:01:42;;;;;;;7.63;3.47;;;;;;;;;;5004407;28;21347;-58
2023/03/27 04:04:10;;;;;;;7.32;3.50;;;;;;;;;;4994788;28;20038;-58
2023/03/27 04:06:36;;;;;;;6.55;3.45;;;;;;;;;;4995384;28;20037;-59
2023/03/27 04:09:04;;;;;;;6.47;3.88;;;;;;;;;;4996163;28;20429;-58
2023/03/27 04:11:31;;;;;;;7.70;4.03;;;;;;;;;;4995563;28;20048;-59
2023/03/27 04:13:58;;;;;;;6.70;3.40;;;;;;;;;;4996134;28;20057;-59
2023/03/27 04:16:24;;;;;;;6.32;3.40;;;;;;;;;;4994190;28;20704;-59
2023/03/27 04:18:53;;;;;;;8.20;3.72;;;;;;;;;;4995314;28;20115;-58
2023/03/27 04:21:19;;;;;;;6.90;3.35;;;;;;;;;;4995957;28;20482;-59
2023/03/27 04:23:50;;;;;;;6.05;3.20;;;;;;;;;;5002051;28;20046;-59
2023/03/27 04:26:16;;;;;;;11.88;3.67;;;;;;;;;;4995539;28;20042;-59
2023/03/27 04:28:43;;;;;;;7.55;3.40;;;;;;;;;;4996802;28;20153;-61
2023/03/27 04:31:10;;;;;;;7.18;3.40;;;;;;;;;;4995936;28;20038;-61
2023/03/27 04:33:38;;;;;;;6.25;2.97;;;;;;;;;;4995698;28;20114;-60
2023/03/27 04:36:05;;;;;;;7.50;3.42;;;;;;;;;;4993938;28;20037;-60
2023/03/27 04:38:33;;;;;;;7.60;3.28;;;;;;;;;;4994826;28;20050;-60
2023/03/27 04:41:00;;;;;;;7.32;3.47;;;;;;;;;;4995539;28;20030;-60
2023/03/27 04:43:27;;;;;;;7.28;3.28;;;;;;;;;;4994046;28;20514;-59
2023/03/27 04:45:54;;;;;;;7.00;3.67;;;;;;;;;;4994787;28;20038;-59
2023/03/27 04:48:21;;;;;;;6.25;3.35;;;;;;;;;;4994429;28;20061;-59
2023/03/27 04:50:48;;;;;;;6.65;3.15;;;;;;;;;;4995276;28;20026;-59
2023/03/27 04:53:15;;;;;;;6.47;3.20;;;;;;;;;;4995240;28;20048;-58
2023/03/27 04:55:44;;;;;;;7.15;3.60;;;;;;;;;;4994712;28;20061;-59
2023/03/27 04:58:11;;;;;;;7.43;3.67;;;;;;;;;;4994599;28;20395;-59
2023/03/27 05:00:38;;;;;;;6.15;3.42;;;;;;;;;;4994292;28;20042;-59
2023/03/27 05:03:05;;;;;;;6.68;3.50;;;;;;;;;;4995489;28;20042;-60
2023/03/27 05:05:33;;;;;;;8.43;3.70;;;;;;;;;;4993257;28;20042;-60
2023/03/27 05:08:00;;;;;;;9.20;3.60;;;;;;;;;;4995385;28;20030;-60
2023/03/27 05:10:26;;;;;;;9.13;4.38;;;;;;;;;;4994225;28;20083;-60
2023/03/27 05:12:53;;;;;;;10.15;4.47;;;;;;;;;;4995503;28;20604;-58
2023/03/27 05:15:20;;;;;;;7.72;4.07;;;;;;;;;;4993643;28;20054;-60
2023/03/27 05:17:54;;;;;;;7.35;4.07;;;;;;;;;;4994227;28;20241;-57
2023/03/27 05:20:21;;;;;;;7.13;3.75;;;;;;;;;;4994116;28;20053;-58
2023/03/27 05:22:48;;;;;;;8.80;4.10;;;;;;;;;;4994640;28;20048;-59
2023/03/27 05:25:15;;;;;;;9.88;3.97;;;;;;;;;;4993815;28;20096;-60
2023/03/27 05:27:48;;;;;;;7.65;3.97;;;;;;;;;;4994423;28;20163;-61
2023/03/27 05:30:16;;;;;;;10.90;4.88;;;;;;;;;;4995381;28;20042;-59
2023/03/27 05:32:50;;;;;;;12.77;4.95;;;;;;;;;;4994727;28;20112;-57
2023/03/27 05:35:18;;;;;;;9.35;4.72;;;;;;;;;;4994193;28;20046;-59
2023/03/27 05:37:46;;;;;;;8.55;3.80;;;;;;;;;;4995003;28;20057;-60
2023/03/27 05:40:14;;;;;;;8.27;3.95;;;;;;;;;;4993447;28;20472;-59
2023/03/27 05:42:44;;;;;;;7.18;3.40;;;;;;;;;;4994208;28;20146;-58
2023/03/27 05:45:11;;;;;;;9.50;4.25;;;;;;;;;;4994206;28;20038;-59
2023/03/27 05:47:52;;;;;;;11.57;4.30;;;;;;;;;;4993812;28;20037;-60
2023/03/27 05:50:19;;;;;;;7.63;4.03;;;;;;;;;;4994939;28;20042;-59
2023/03/27 05:52:46;;;;;;;9.95;4.72;;;;;;;;;;5003087;28;20493;-59
2023/03/27 05:55:14;;;;;;;8.75;4.18;;;;;;;;;;4994570;28;20141;-59
2023/03/27 05:57:41;;;;;;;12.65;5.10;;;;;;;;;;4995102;28;20095;-59
2023/03/27 06:00:15;;;;;;;10.45;5.20;;;;;;;;;;4996500;28;20038;-58
2023/03/27 06:02:42;;;;;;;9.27;4.63;;;;;;;;;;4997808;28;20033;-58
2023/03/27 06:05:11;;;;;;;9.68;5.53;;;;;;;;;;4998607;28;20046;-58
2023/03/27 06:07:38;;;;;;;8.35;5.10;;;;;;;;;;4997740;28;20164;-57
2023/03/27 06:10:06;;;;;;;9.40;5.63;;;;;;;;;;4998029;28;20498;-59
2023/03/27 06:12:33;;;;;;;10.13;5.68;;;;;;;;;;4997707;28;20504;-58
2023/03/27 06:15:00;;;;;;;9.05;5.65;;;;;;;;;;4997687;28;20073;-59
2023/03/27 06:17:27;;;;;;;10.13;6.05;;;;;;;;;;4998838;28;20042;-58
2023/03/27 06:19:53;;;;;;;15.95;5.72;;;;;;;;;;4998113;28;20398;-58
2023/03/27 06:22:20;;;;;;;11.13;5.70;;;;;;;;;;4997367;28;20156;-60
2023/03/27 06:24:46;;;;;;;10.02;5.78;;;;;;;;;;4997253;28;20589;-59
2023/03/27 06:27:13;;;;;;;10.90;5.55;;;;;;;;;;4999031;28;20049;-59
2023/03/27 06:29:40;;;;;;;12.45;5.13;;;;;;;;;;4997928;28;20081;-58
2023/03/27 06:32:07;;;;;;;10.45;5.82;;;;;;;;;;4998303;28;20156;-58
2023/03/27 06:34:34;;;;;;;11.48;6.63;;;;;;;;;;4996648;28;20502;-59
2023/03/27 06:37:03;;;;;;;11.57;6.50;;;;;;;;;;4997439;28;20042;-59
2023/03/27 06:39:30;;;;;;;12.15;6.68;;;;;;;;;;4997282;28;20798;-59
2023/03/27 06:41:57;;;;;;;13.77;7.35;;;;;;;;;;4998317;28;20186;-58
2023/03/27 06:44:24;;;;;;;14.10;7.30;;;;;;;;;;4996738;28;20038;-57
2023/03/27 06:46:50;;;;;;;12.30;7.82;;;;;;;;;;4997509;28;20184;-59
2023/03/27 06:49:17;;;;;;;14.50;7.43;;;;;;;;;;4997718;28;20573;-59
2023/03/27 06:51:44;;;;;;;12.00;7.13;;;;;;;;;;4996962;28;20052;-59
2023/03/27 06:54:12;;;;;;;15.82;7.20;;;;;;;;;;5005421;28;20133;-60
2023/03/27 06:56:39;;;;;;;13.70;7.18;;;;;;;;;;4997228;28;20034;-58
2023/03/27 06:59:06;;;;;;;13.48;7.47;;;;;;;;;;4997704;28;20041;-59
2023/03/27 07:01:32;;;;;;;12.82;7.88;;;;;;;;;;4997667;28;20061;-58
2023/03/27 07:03:59;;;;;;;12.40;7.57;;;;;;;;;;4997798;28;20379;-59
2023/03/27 07:06:26;;;;;;;13.15;7.65;;;;;;;;;;4997858;28;20402;-59
2023/03/27 07:08:53;;;;;;;13.90;7.90;;;;;;;;;;4997082;28;20040;-59
2023/03/27 07:11:19;;;;;;;17.48;9.05;;;;;;;;;;4997235;28;20037;-59
2023/03/27 07:13:46;;;;;;;16.35;8.35;;;;;;;;;;4997513;28;20050;-57
2023/03/27 07:16:13;;;;;;;15.18;8.07;;;;;;;;;;4996993;28;20102;-58
2023/03/27 07:18:40;;;;;;;14.40;8.50;;;;;;;;;;4996170;28;20045;-59
2023/03/27 07:21:07;;;;;;;16.13;8.85;;;;;;;;;;4997082;28;20156;-58
2023/03/27 07:23:34;;;;;;;15.90;8.43;;;;;;;;;;4996243;28;20045;-58
2023/03/27 07:26:01;;;;;;;15.48;8.18;;;;;;;;;;4996284;28;20390;-58
2023/03/27 07:28:28;;;;;;;16.23;8.30;;;;;;;;;;4996311;28;20037;-56
2023/03/27 07:30:54;;;;;;;17.63;8.07;;;;;;;;;;4997274;28;20029;-59
2023/03/27 07:33:21;;;;;;;12.25;7.13;;;;;;;;;;4995913;28;20140;-58
2023/03/27 07:35:48;;;;;;;15.52;6.63;;;;;;;;;;4996247;28;20819;-58
2023/03/27 07:38:17;;;;;;;10.80;6.43;;;;;;;;;;4997034;28;20508;-58
2023/03/27 07:40:46;;;;;;;12.52;6.10;;;;;;;;;;5013258;28;20052;-57
2023/03/27 07:43:13;;;;;;;10.95;6.07;;;;;;;;;;4997273;28;20986;-58
2023/03/27 07:45:40;;;;;;;8.38;5.22;;;;;;;;;;4995732;28;20037;-58
2023/03/27 07:48:13;;;;;;;10.27;5.25;;;;;;;;;;4996058;28;20111;-57
2023/03/27 07:50:41;;;;;;;11.18;5.30;;;;;;;;;;4996274;28;20038;-58
2023/03/27 07:53:07;;;;;;;11.30;4.93;;;;;;;;;;4996140;28;20096;-59
2023/03/27 07:55:36;;;;;;;9.50;5.00;;;;;;;;;;4995516;28;20793;-59
2023/03/27 07:58:05;;;;;;;10.95;5.28;;;;;;;;;;4996684;28;20065;-59
2023/03/27 08:00:34;;;;;;;9.75;5.38;;;;;;;;;;4996076;28;20099;-57
2023/03/27 08:03:06;;;;;;;10.63;5.55;;;;;;;;;;4997427;28;20044;-59
2023/03/27 08:05:32;;;;;;;9.48;5.18;;;;;;;;;;4995410;28;20038;-59
2023/03/27 08:08:00;;;;;;;10.00;5.20;;;;;;;;;;4995545;28;20034;-58
2023/03/27 08:10:26;;;;;;;12.93;5.20;;;;;;;;;;4996063;28;20045;-60
2023/03/27 08:12:53;;;;;;;9.68;4.90;;;;;;;;;;4996617;28;20052;-59
2023/03/27 08:15:20;;;;;;;10.38;5.30;;;;;;;;;;4994915;28;20052;-60
2023/03/27 08:17:46;;;;;;;9.27;5.00;;;;;;;;;;4995974;28;20033;-60
2023/03/27 08:20:14;;;;;;;8.85;5.28;;;;;;;;;;4996663;28;20566;-57
2023/03/27 08:22:40;;;;;;;9.07;4.90;;;;;;;;;;4994857;28;20499;-61
2023/03/27 08:25:11;;;;;;;10.13;5.15;;;;;;;;;;4994682;28;20044;-59
2023/03/27 08:27:38;;;;;;;11.95;5.63;;;;;;;;;;4995876;28;20725;-58
2023/03/27 08:30:05;;;;;;;10.55;5.07;;;;;;;;;;4996197;28;20045;-61
2023/03/27 08:32:31;;;;;;;8.10;4.90;;;;;;;;;;4995466;28;20034;-59
2023/03/27 08:34:58;;;;;;;9.90;4.88;;;;;;;;;;4995421;28;20053;-60
2023/03/27 08:37:26;;;;;;;9.48;4.95;;;;;;;;;;4994781;28;20042;-59
2023/03/27 08:39:57;;;;;;;8.55;4.82;;;;;;;;;;4994268;28;20056;-60
2023/03/27 08:42:29;;;;;;;9.20;4.68;;;;;;;;;;4995636;28;20034;-59
2023/03/27 08:44:56;;;;;;;10.38;4.85;;;;;;;;;;4995267;28;20401;-58
2023/03/27 08:47:33;;;;;;;9.77;4.50;;;;;;;;;;4995749;28;20038;-59
2023/03/27 08:50:02;;;;;;;9.27;4.75;;;;;;;;;;4995449;28;20062;-59
2023/03/27 08:52:31;;;;;;;9.75;5.25;;;;;;;;;;4994797;28;20046;-57
2023/03/27 08:54:59;;;;;;;9.23;5.03;;;;;;;;;;4994535;28;20052;-59
2023/03/27 08:57:27;;;;;;;11.30;5.40;;;;;;;;;;4995663;28;20375;-59
2023/03/27 09:00:00;;;;;;;10.30;5.35;;;;;;;;;;4995076;28;20494;-59
2023/03/27 09:02:33;;;;;;;10.85;5.20;;;;;;;;;;4994502;28;20057;-58
2023/03/27 09:05:10;;;;;;;8.87;4.83;;;;;;;;;;4994466;28;20046;-59
2023/03/27 09:07:42;;;;;;;11.63;5.18;;;;;;;;;;5017351;28;20290;-64
2023/03/27 09:10:16;;;;;;;9.70;5.00;;;;;;;;;;4995346;28;20050;-59
2023/03/27 09:13:03;;;;;;;10.98;5.68;;;;;;;;;;4994568;28;20099;-61
2023/03/27 09:15:32;;;;;;;12.13;5.75;;;;;;;;;;4993773;28;20045;-60
2023/03/27 09:18:01;;;;;;;10.18;5.88;;;;;;;;;;4995473;28;20038;-58
2023/03/27 09:20:36;;;;;;;11.23;5.90;;;;;;;;;;4994757;28;20049;-59
2023/03/27 09:23:25;;;;;;;11.68;5.90;;;;;;;;;;4995500;28;20039;-61
2023/03/27 09:25:58;;;;;;;11.02;6.00;;;;;;;;;;4997297;28;20136;-59
2023/03/27 09:28:28;;;;;;;10.80;5.97;;;;;;;;;;4998164;28;20133;-57
2023/03/27 09:30:56;;;;;;;15.45;6.60;;;;;;;;;;4995827;28;20119;-57
2023/03/27 09:33:24;;;;;;;13.45;6.10;;;;;;;;;;4994909;28;20057;-57
2023/03/27 09:35:51;;;;;;;13.43;6.85;;;;;;;;;;4997051;28;20040;-59
2023/03/27 09:38:24;;;;;;;14.40;6.40;;;;;;;;;;4998802;28;20045;-59
2023/03/27 09:40:59;;;;;;;11.80;6.40;;;;;;;;;;5005140;28;20041;-61
2023/03/27 09:43:28;;;;;;;12.02;5.95;;;;;;;;;;4998163;28;20092;-59
2023/03/27 09:45:56;;;;;;;13.00;6.97;;;;;;;;;;4998869;28;20725;-58
2023/03/27 09:48:40;;;;;;;14.05;6.60;;;;;;;;;;4998936;28;20045;-58
2023/03/27 09:51:06;;;;;;;;;;;;;;;;;;4998872;28;20124;-59
2023/03/27 09:53:34;;;;;;;13.07;6.57;;;;;;;;;;4997956;28;20027;-59
2023/03/27 09:56:04;;;;;;;12.02;6.32;;;;;;;;;;4998336;28;20229;-61
2023/03/27 09:58:39;;;;;;;16.00;7.22;;;;;;;;;;4998632;28;20033;-59
2023/03/27 10:01:18;;;;;;;13.55;7.15;;;;;;;;;;4997794;28;20084;-61
2023/03/27 10:03:47;;;;;;;13.38;7.43;;;;;;;;;;5006168;28;20038;-61
2023/03/27 10:06:19;;;;;;;15.68;7.47;;;;;;;;;;4998769;28;20057;-60
2023/03/27 10:08:49;;;;;;;15.07;8.02;;;;;;;;;;4998276;28;20042;-59
2023/03/27 10:11:19;;;;;;;13.57;7.00;;;;;;;;;;4998598;28;20541;-59
2023/03/27 10:13:47;;;;;;;13.75;6.97;;;;;;;;;;5005160;28;20546;-59
2023/03/27 10:16:16;;;;;;;12.48;7.60;;;;;;;;;;4998874;28;20120;-59
2023/03/27 10:18:47;;;;;;;12.27;6.88;;;;;;;;;;4997699;28;20065;-58
2023/03/27 10:21:41;;;;;;;14.85;7.03;;;;;;;;;;4998243;28;20082;-57
2023/03/27 10:24:17;;;;;;;14.90;7.65;;;;;;;;;;4994437;28;20407;-59
2023/03/27 10:26:43;;;;;;;13.32;7.00;;;;;;;;;;5010378;28;20145;-58
2023/03/27 10:29:30;;;;;;;13.73;7.60;;;;;;;;;;5025194;28;20041;-59
2023/03/27 10:31:58;;;;;;;14.10;7.15;;;;;;;;;;5004068;28;20081;-58
2023/03/27 10:34:29;;;;;;;14.27;8.00;;;;;;;;;;4996241;28;20778;-59
2023/03/27 10:36:56;;;;;;;15.98;8.05;;;;;;;;;;4998220;28;20058;-57
2023/03/27 10:39:26;;;;;;;15.27;7.57;;;;;;;;;;4996974;28;20046;-58
2023/03/27 10:41:53;;;;;;;14.57;7.85;;;;;;;;;;4998265;28;20029;-58
2023/03/27 10:44:24;;;;;;;14.18;7.93;;;;;;;;;;4996188;28;20744;-59
2023/03/27 10:46:51;;;;;;;14.65;7.93;;;;;;;;;;4997523;28;20113;-58
2023/03/27 10:49:24;;;;;;;19.40;8.93;;;;;;;;;;5005306;28;20099;-66
2023/03/27 10:52:11;;;;;;;16.45;8.60;;;;;;;;;;4997759;28;20042;-59
2023/03/27 10:54:55;;;;;;;16.42;8.23;;;;;;;;;;4980450;28;20152;-60
2023/03/27 10:57:41;;;;;;;15.82;8.80;;;;;;;;;;4998588;28;20045;-58
2023/03/27 11:00:17;;;;;;;13.27;8.05;;;;;;;;;;4998091;28;20046;-58
2023/03/27 11:02:58;;;;;;;17.17;9.38;;;;;;;;;;4997726;28;20037;-58
2023/03/27 11:05:34;;;;;;;18.90;8.93;;;;;;;;;;4996968;28;20042;-58
2023/03/27 11:08:11;;;;;;;15.10;8.73;;;;;;;;;;4997949;28;20061;-59
2023/03/27 11:10:42;;;;;;;15.30;8.15;;;;;;;;;;4997055;28;20422;-59
2023/03/27 11:13:21;;;;;;;17.15;8.68;;;;;;;;;;4997192;28;20089;-58
2023/03/27 11:16:13;;;;;;;16.08;8.68;;;;;;;;;;5010885;28;20498;-59
2023/03/27 11:18:44;;;;;;;15.77;8.13;;;;;;;;;;4992085;28;20046;-59
2023/03/27 11:21:16;;;;;;;14.35;7.28;;;;;;;;;;4997170;28;20095;-59
2023/03/27 11:23:49;;;;;;;12.48;6.85;;;;;;;;;;4996676;28;20052;-58
2023/03/27 11:26:17;;;;;;;7.43;3.23;;;;;;;;;;4997999;28;20050;-58
2023/03/27 11:28:52;;;;;;;9.80;4.13;;;;;;;;;;5003039;28;20389;-58
2023/03/27 11:31:27;;;;;;;10.88;6.25;;;;;;;;;;4996374;28;20049;-61
2023/03/27 11:34:04;;;;;;;11.80;5.88;;;;;;;;;;4996835;28;20065;-59
2023/03/27 11:36:40;;;;;;;12.30;7.32;;;;;;;;;;4995288;28;20129;-58
2023/03/27 11:39:16;;;;;;;13.30;6.80;;;;;;;;;;4997416;28;20057;-59
2023/03/27 11:41:47;;;;;;;8.18;3.85;;;;;;;;;;4996633;28;20034;-60
2023/03/27 11:44:14;;;;;;;46.33;9.18;;;;;;;;;;4996411;28;20533;-58
2023/03/27 11:46:50;;;;;;;10.63;5.55;;;;;;;;;;4994741;28;20649;-58
2023/03/27 11:49:35;;;;;;;14.07;6.68;;;;;;;;;;4996932;28;21095;-57
2023/03/27 11:52:15;;;;;;;13.20;7.20;;;;;;;;;;5001834;28;20141;-58
2023/03/27 11:54:53;;;;;;;17.63;7.85;;;;;;;;;;4999157;28;20532;-60
2023/03/27 11:57:24;;;;;;;12.75;7.40;;;;;;;;;;5013566;28;20045;-60
2023/03/27 12:00:00;;;;;;;11.68;7.03;;;;;;;;;;4995995;28;20065;-61
2023/03/27 12:02:45;;;;;;;6.93;3.90;;;;;;;;;;4995269;28;20088;-59
2023/03/27 12:05:13;;;;;;;5.30;2.25;;;;;;;;;;4996724;28;20089;-59
2023/03/27 12:07:48;;;;;;;7.05;2.47;;;;;;;;;;4995124;28;20924;-60
2023/03/27 12:10:27;;;;;;;6.15;2.28;;;;;;;;;;4995968;28;20038;-60
2023/03/27 12:13:01;;;;;;;2.83;1.27;;;;;;;;;;5003389;28;20246;-61
2023/03/27 12:15:32;;;;;;;6.30;2.70;;;;;;;;;;4995302;28;20132;-61
2023/03/27 12:18:05;;;;;;;9.65;3.20;;;;;;;;;;4995358;28;20068;-59
2023/03/27 12:20:42;;;;;;;7.43;2.72;;;;;;;;;;4994456;28;20038;-61
2023/03/27 12:23:12;;;;;;;6.80;3.38;;;;;;;;;;4995687;28;20091;-61
2023/03/27 12:25:57;;;;;;;9.65;4.45;;;;;;;;;;4994907;28;20050;-57
2023/03/27 12:28:36;;;;;;;10.52;4.32;;;;;;;;;;4995604;28;20072;-59
2023/03/27 12:31:22;;;;;;;7.78;4.38;;;;;;;;;;5001612;28;20117;-62
2023/03/27 12:33:48;;;;;;;9.45;4.50;;;;;;;;;;5002286;28;20053;-60
2023/03/27 12:36:21;;;;;;;11.70;4.75;;;;;;;;;;4995469;28;20125;-62
2023/03/27 12:38:47;;;;;;;8.63;3.88;;;;;;;;;;4994998;28;20045;-62
2023/03/27 12:41:20;;;;;;;4.70;2.65;;;;;;;;;;4994757;28;20048;-61
2023/03/27 12:43:48;;;;;;;4.53;2.53;;;;;;;;;;5002055;28;20117;-62
2023/03/27 12:46:30;;;;;;;12.32;5.68;;;;;;;;;;4996277;28;20455;-61
2023/03/27 12:49:00;;;;;;;12.00;5.53;;;;;;;;;;5001317;28;20037;-59
2023/03/27 12:51:38;;;;;;;8.35;4.63;;;;;;;;;;4994572;28;20441;-59
2023/03/27 12:54:24;;;;;;;9.82;5.03;;;;;;;;;;4995368;28;20050;-61
2023/03/27 12:56:56;;;;;;;10.02;5.60;;;;;;;;;;5001364;28;20052;-59
2023/03/27 12:59:25;;;;;;;3.95;1.92;;;;;;;;;;4994608;28;20042;-62
2023/03/27 13:02:14;;;;;;;5.35;2.20;;;;;;;;;;4996172;28;20447;-60
2023/03/27 13:04:59;;;;;;;11.75;5.18;;;;;;;;;;4995644;28;20072;-59
2023/03/27 13:07:32;;;;;;;5.32;2.55;;;;;;;;;;4996738;28;20042;-59
2023/03/27 13:09:59;;;;;;;10.93;5.05;;;;;;;;;;4995551;28;20051;-61
2023/03/27 13:12:45;;;;;;;13.30;6.93;;;;;;;;;;4995637;28;20581;-61
2023/03/27 13:15:14;;;;;;;14.20;5.07;;;;;;;;;;4996559;28;20045;-59
2023/03/27 13:17:41;;;;;;;11.00;5.35;;;;;;;;;;4993522;28;20038;-61
2023/03/27 13:20:08;;;;;;;9.82;5.63;;;;;;;;;;4994491;28;20046;-58
2023/03/27 13:22:50;;;;;;;11.25;5.68;;;;;;;;;;5002380;28;20045;-58
2023/03/27 13:25:52;;;;;;;14.90;7.75;;;;;;;;;;5001469;28;20038;-61
2023/03/27 13:28:28;;;;;;;16.30;8.90;;;;;;;;;;4957937;28;20137;-59
2023/03/27 13:30:56;;;;;;;14.70;7.88;;;;;;;;;;4989734;28;20056;-60
2023/03/27 13:33:34;;;;;;;15.75;8.65;;;;;;;;;;4993155;28;20068;-61
2023/03/27 13:36:07;;;;;;;14.73;7.38;;;;;;;;;;4994335;28;20058;-61
2023/03/27 13:38:45;;;;;;;18.08;8.70;;;;;;;;;;4992653;28;20045;-60
2023/03/27 13:41:31;;;;;;;22.80;9.90;;;;;;;;;;4995298;28;20052;-59
2023/03/27 13:44:00;;;;;;;18.48;9.45;;;;;;;;;;5000371;28;20038;-62
2023/03/27 13:46:28;;;;;;;16.77;8.00;;;;;;;;;;4994292;28;20085;-61
2023/03/27 13:49:07;;;;;;;19.45;8.93;;;;;;;;;;4994983;28;20108;-59
2023/03/27 13:51:41;;;;;;;20.60;9.52;;;;;;;;;;4994932;28;21733;-58
2023/03/27 13:54:11;;;;;;;16.35;8.70;;;;;;;;;;4994595;28;20142;-59
2023/03/27 13:56:56;;;;;;;19.63;7.85;;;;;;;;;;4992089;28;20057;-59
2023/03/27 13:59:24;;;;;;;18.73;8.48;;;;;;;;;;4993548;28;20038;-61
2023/03/27 14:02:21;;;;;;;20.17;8.70;;;;;;;;;;4994389;28;20065;-58
2023/03/27 14:04:50;;;;;;;19.88;8.68;;;;;;;;;;4959569;28;20161;-62
2023/03/27 14:07:29;;;;;;;19.88;9.10;;;;;;;;;;4993202;28;20068;-59
2023/03/27 14:10:15;;;;;;;17.83;9.77;;;;;;;;;;4993317;28;20038;-60
2023/03/27 14:12:50;;;;;;;23.63;9.52;;;;;;;;;;5014234;28;20046;-60
2023/03/27 14:15:29;;;;;;;18.88;8.57;;;;;;;;;;4993015;28;20465;-60
2023/03/27 14:17:56;;;;;;;15.90;8.23;;;;;;;;;;4999845;28;20065;-59
2023/03/27 14:20:30;;;;;;;13.93;7.85;;;;;;;;;;4993877;28;20050;-61
2023/03/27 14:23:02;;;;;;;17.70;7.85;;;;;;;;;;4995776;28;20061;-61
2023/03/27 14:25:33;;;;;;;18.50;7.63;;;;;;;;;;4996574;28;20041;-58
2023/03/27 14:28:00;;;;;;;10.80;5.75;;;;;;;;;;4997331;28;20073;-60
2023/03/27 14:30:32;;;;;;;8.43;4.32;;;;;;;;;;4997433;28;20065;-61
2023/03/27 14:33:08;;;;;;;8.80;4.00;;;;;;;;;;4997201;28;20117;-63
2023/03/27 14:35:39;;;;;;;7.38;3.92;;;;;;;;;;4996642;28;20081;-59
2023/03/27 14:38:15;;;;;;;10.48;4.60;;;;;;;;;;4997879;28;20127;-61
2023/03/27 14:40:46;;;;;;;8.65;4.25;;;;;;;;;;4997017;28;20057;-59
2023/03/27 14:43:14;;;;;;;7.32;3.38;;;;;;;;;;4996783;28;20042;-59
2023/03/27 14:45:41;;;;;;;10.25;3.95;;;;;;;;;;4996680;28;20786;-61
2023/03/27 14:48:21;;;;;;;9.15;2.85;;;;;;;;;;4998250;28;20046;-61
2023/03/27 14:50:50;;;;;;;2.60;1.25;;;;;;;;;;5011479;28;21023;-60
2023/03/27 14:53:20;;;;;;;4.35;2.25;;;;;;;;;;4997498;28;20073;-61
2023/03/27 14:55:48;;;;;;;3.88;1.55;;;;;;;;;;4997061;28;20099;-60
2023/03/27 14:58:18;;;;;;;10.35;3.72;;;;;;;;;;4997999;28;20510;-59
2023/03/27 15:00:49;;;;;;;7.40;3.78;;;;;;;;;;5006187;28;20083;-59